Time;durP1;ratioP1;P1;durP2;ratioP2;P2;SDS_P1;SDS_P2;PMS_P1;PMS_P2;Temp;Humidity;BMP_temperature;BMP_pressure;BME280_temperature;BME280_humidity;BME280_pressure;Samples;Min_cycle;Max_cycle;Signal;HPM_P1;HPM_P2
2021/12/11 04:02:05;;;;;;;2.40;0.90;;;4.40;84.00;;;;;;5512719;22;20851;-73
2021/12/11 04:04:34;;;;;;;3.40;1.10;;;4.50;83.60;;;;;;5053475;28;20433;-72
2021/12/11 04:07:06;;;;;;;2.50;1.20;;;4.50;83.60;;;;;;5053346;28;20438;-73
2021/12/11 04:09:34;;;;;;;2.70;1.27;;;4.60;83.40;;;;;;5053283;28;20536;-72
2021/12/11 04:12:03;;;;;;;2.17;0.80;;;4.60;83.30;;;;;;5053249;28;20520;-73
2021/12/11 04:14:34;;;;;;;5.87;1.10;;;4.70;83.30;;;;;;5054468;28;20477;-72
2021/12/11 04:17:03;;;;;;;2.40;0.90;;;4.70;83.10;;;;;;5053271;28;20430;-72
2021/12/11 04:19:30;;;;;;;3.10;0.90;;;4.70;83.50;;;;;;5053271;28;20453;-72
2021/12/11 04:21:57;;;;;;;2.67;1.10;;;4.80;83.30;;;;;;5053133;28;20481;-73
2021/12/11 04:24:28;;;;;;;2.50;0.93;;;4.80;82.80;;;;;;5053129;28;20447;-73
2021/12/11 04:26:57;;;;;;;3.33;1.10;;;4.70;83.30;;;;;;5053218;28;20439;-73
2021/12/11 04:29:24;;;;;;;2.47;0.90;;;4.70;83.00;;;;;;5052787;28;21055;-73
2021/12/11 04:31:51;;;;;;;2.90;1.07;;;4.70;83.20;;;;;;5053042;28;20466;-73
2021/12/11 04:34:21;;;;;;;3.47;1.47;;;4.60;83.10;;;;;;5052830;28;20989;-72
2021/12/11 04:36:51;;;;;;;2.77;1.17;;;4.60;83.30;;;;;;5053039;28;20477;-72
2021/12/11 04:39:21;;;;;;;2.47;0.93;;;4.70;83.40;;;;;;5053001;28;20843;-73
2021/12/11 04:41:57;;;;;;;2.57;1.10;;;4.70;83.30;;;;;;5052979;28;20473;-73
2021/12/11 04:44:32;;;;;;;2.50;1.33;;;4.60;83.20;;;;;;5053018;28;20435;-73
2021/12/11 04:46:59;;;;;;;2.47;0.83;;;4.70;83.30;;;;;;5052932;28;20448;-72
2021/12/11 04:49:34;;;;;;;2.40;0.90;;;4.70;83.10;;;;;;5052852;28;20486;-72
2021/12/11 04:52:07;;;;;;;2.40;1.07;;;4.60;83.10;;;;;;5052619;28;21050;-72
2021/12/11 04:54:48;;;;;;;2.40;0.90;;;4.50;83.80;;;;;;5052614;28;20913;-73
2021/12/11 04:57:54;;;;;;;2.40;1.00;;;4.60;83.70;;;;;;5052924;28;20435;-73
2021/12/11 05:00:34;;;;;;;2.50;0.87;;;4.60;83.40;;;;;;5052844;28;20450;-72
2021/12/11 05:05:59;;;;;;;2.83;1.10;;;4.70;83.30;;;;;;5052921;28;20410;-73
2021/12/11 05:08:59;;;;;;;2.40;1.00;;;4.70;83.50;;;;;;5052838;28;20501;-73
2021/12/11 05:11:34;;;;;;;2.20;0.80;;;4.80;83.50;;;;;;5056034;28;21022;-73
2021/12/11 05:14:01;;;;;;;2.30;0.80;;;4.80;83.10;;;;;;5056671;28;20445;-73
2021/12/11 05:16:28;;;;;;;2.40;1.00;;;4.90;82.90;;;;;;5056481;28;20442;-72
2021/12/11 05:18:55;;;;;;;3.70;1.17;;;4.90;82.60;;;;;;5056466;28;20446;-73
2021/12/11 05:21:23;;;;;;;2.43;1.00;;;4.80;82.90;;;;;;5056428;28;20466;-73
2021/12/11 05:23:53;;;;;;;2.30;1.00;;;4.80;83.30;;;;;;5056401;28;20446;-73
2021/12/11 05:26:21;;;;;;;2.60;0.90;;;4.90;82.90;;;;;;5057492;28;20449;-73
2021/12/11 05:28:49;;;;;;;2.33;1.10;;;4.80;82.90;;;;;;5056264;28;20532;-73
2021/12/11 05:31:16;;;;;;;2.67;1.20;;;4.80;82.70;;;;;;5056137;28;20539;-72
2021/12/11 05:33:44;;;;;;;2.27;0.90;;;4.80;82.80;;;;;;5056171;28;20808;-73
2021/12/11 05:36:13;;;;;;;2.30;0.97;;;4.80;83.20;;;;;;5056143;28;20867;-73
2021/12/11 05:38:41;;;;;;;3.57;1.23;;;4.80;83.10;;;;;;5056175;28;20446;-72
2021/12/11 05:41:11;;;;;;;2.50;1.23;;;4.80;83.20;;;;;;5055949;28;20462;-73
2021/12/11 05:43:39;;;;;;;3.23;1.10;;;4.70;83.10;;;;;;5056021;28;20848;-72
2021/12/11 05:46:08;;;;;;;2.60;1.20;;;4.70;83.20;;;;;;5056018;28;20492;-72
2021/12/11 05:48:35;;;;;;;2.40;1.10;;;4.80;83.10;;;;;;5055675;28;20926;-73
2021/12/11 05:51:04;;;;;;;2.73;1.10;;;4.80;83.20;;;;;;5055784;28;20494;-73
2021/12/11 05:53:32;;;;;;;3.13;0.90;;;4.70;83.00;;;;;;5056707;28;20500;-72
2021/12/11 05:56:06;;;;;;;2.33;1.03;;;4.70;83.30;;;;;;5055838;28;20454;-73
2021/12/11 05:58:46;;;;;;;2.70;1.20;;;4.50;83.60;;;;;;5055873;28;20530;-72
2021/12/11 06:01:16;;;;;;;2.67;1.00;;;4.50;84.20;;;;;;5055500;28;20569;-72
2021/12/11 06:03:42;;;;;;;2.30;0.97;;;4.50;84.40;;;;;;5055711;28;20516;-72
2021/12/11 06:06:10;;;;;;;2.60;1.10;;;4.60;84.10;;;;;;5055658;28;20524;-72
2021/12/11 06:08:37;;;;;;;2.50;1.17;;;4.50;84.10;;;;;;5055621;28;20503;-73
2021/12/11 06:11:06;;;;;;;2.50;1.10;;;4.60;84.00;;;;;;5055401;28;20486;-73
2021/12/11 06:13:33;;;;;;;2.23;0.90;;;4.60;83.80;;;;;;5055530;28;20496;-73
2021/12/11 06:16:02;;;;;;;2.40;0.90;;;4.80;83.80;;;;;;5055152;28;20500;-73
2021/12/11 06:18:29;;;;;;;2.30;0.90;;;4.70;83.40;;;;;;5055388;28;20453;-73
2021/12/11 06:20:56;;;;;;;2.77;1.10;;;4.60;83.70;;;;;;5054638;28;21005;-73
2021/12/11 06:23:23;;;;;;;2.60;1.40;;;4.60;83.90;;;;;;5055359;28;20442;-73
2021/12/11 06:25:51;;;;;;;2.50;1.07;;;4.60;84.10;;;;;;5054928;28;20938;-72
2021/12/11 06:28:20;;;;;;;2.37;0.90;;;4.70;83.70;;;;;;5055213;28;20450;-73
2021/12/11 06:30:47;;;;;;;2.20;0.80;;;4.70;83.60;;;;;;5054971;28;20535;-73
2021/12/11 06:33:14;;;;;;;2.40;1.00;;;4.70;83.60;;;;;;5055152;28;20442;-73
2021/12/11 06:35:44;;;;;;;2.60;1.00;;;4.70;83.70;;;;;;5055051;28;20457;-73
2021/12/11 06:38:15;;;;;;;2.50;1.10;;;4.80;83.70;;;;;;5055056;28;20431;-73
2021/12/11 06:40:42;;;;;;;2.60;0.80;;;4.70;83.50;;;;;;5054644;28;20882;-73
2021/12/11 06:43:09;;;;;;;2.40;1.00;;;4.80;83.50;;;;;;5054940;28;20446;-73
2021/12/11 06:45:37;;;;;;;2.57;1.10;;;4.90;83.10;;;;;;5054803;28;20450;-73
2021/12/11 06:48:05;;;;;;;2.50;1.00;;;4.80;83.20;;;;;;5054529;28;21020;-73
2021/12/11 06:50:32;;;;;;;2.70;1.27;;;4.80;83.40;;;;;;5054721;28;20490;-73
2021/12/11 06:53:00;;;;;;;4.10;1.80;;;4.70;83.20;;;;;;5054772;28;20496;-73
2021/12/11 06:55:27;;;;;;;3.53;1.57;;;4.80;83.30;;;;;;5054643;28;20442;-73
2021/12/11 06:57:54;;;;;;;2.87;1.70;;;4.70;83.70;;;;;;5054301;28;20446;-74
2021/12/11 07:00:22;;;;;;;3.50;1.90;;;4.60;83.80;;;;;;5054324;28;20501;-73
2021/12/11 07:02:50;;;;;;;2.90;1.47;;;4.60;83.80;;;;;;5054286;28;20830;-73
2021/12/11 07:05:17;;;;;;;3.23;1.40;;;4.50;84.00;;;;;;5054525;28;20512;-73
2021/12/11 07:07:44;;;;;;;5.30;1.90;;;4.60;84.30;;;;;;5054471;28;20458;-73
2021/12/11 07:10:13;;;;;;;3.83;1.57;;;4.70;84.10;;;;;;5054319;28;20486;-74
2021/12/11 07:12:41;;;;;;;2.73;1.67;;;4.70;83.70;;;;;;5054505;28;20471;-74
2021/12/11 07:15:10;;;;;;;3.50;1.77;;;4.80;83.80;;;;;;5054100;28;20844;-74
2021/12/11 07:17:38;;;;;;;3.57;1.87;;;4.80;83.50;;;;;;5053948;28;20906;-74
2021/12/11 07:20:10;;;;;;;3.50;1.83;;;4.80;83.50;;;;;;5054971;28;20918;-74
2021/12/11 07:22:39;;;;;;;2.90;2.00;;;4.80;83.20;;;;;;5054134;28;20466;-74
2021/12/11 07:25:10;;;;;;;2.90;1.90;;;4.70;83.40;;;;;;5054138;28;20473;-74
2021/12/11 07:27:37;;;;;;;3.30;1.80;;;4.90;83.40;;;;;;5053768;28;20840;-73
2021/12/11 07:30:04;;;;;;;2.60;1.40;;;4.80;83.10;;;;;;5053992;28;20473;-74
2021/12/11 07:32:33;;;;;;;2.80;1.40;;;4.90;82.90;;;;;;5053281;28;20474;-73
2021/12/11 07:35:00;;;;;;;2.57;1.27;;;4.90;83.10;;;;;;5053959;28;20446;-73
2021/12/11 07:37:28;;;;;;;3.03;1.70;;;4.90;82.90;;;;;;5053881;28;20500;-74
2021/12/11 07:39:55;;;;;;;2.90;1.47;;;4.90;82.90;;;;;;5053886;28;20477;-74
2021/12/11 07:42:21;;;;;;;2.70;1.50;;;4.90;82.80;;;;;;5053821;28;20462;-74
2021/12/11 07:44:48;;;;;;;2.57;1.40;;;4.80;82.90;;;;;;5053755;28;20447;-73
2021/12/11 07:47:15;;;;;;;2.97;1.73;;;4.70;82.90;;;;;;5053765;28;20496;-74
2021/12/11 07:49:42;;;;;;;2.70;1.70;;;4.50;83.50;;;;;;5053738;28;20446;-73
2021/12/11 07:52:09;;;;;;;2.80;1.37;;;4.50;84.10;;;;;;5053561;28;20898;-74
2021/12/11 07:54:37;;;;;;;3.13;1.90;;;4.50;84.00;;;;;;5053689;28;20446;-73
2021/12/11 07:57:04;;;;;;;3.60;1.77;;;4.60;84.00;;;;;;5053588;28;20500;-73
2021/12/11 07:59:31;;;;;;;4.20;2.10;;;4.60;84.20;;;;;;5053256;28;20938;-74
2021/12/11 08:01:58;;;;;;;3.00;1.93;;;4.60;83.90;;;;;;5053158;28;20474;-73
2021/12/11 08:04:25;;;;;;;3.13;2.07;;;4.70;83.70;;;;;;5053419;28;20447;-73
2021/12/11 08:06:53;;;;;;;3.27;2.20;;;4.60;83.80;;;;;;5053319;28;20453;-74
2021/12/11 08:09:22;;;;;;;4.73;2.70;;;4.70;83.50;;;;;;5053283;28;20450;-73
2021/12/11 08:11:50;;;;;;;3.50;2.50;;;4.70;83.60;;;;;;5053152;28;20487;-74
2021/12/11 08:14:19;;;;;;;3.60;2.70;;;4.60;83.60;;;;;;5053324;28;20535;-74
2021/12/11 08:16:47;;;;;;;3.77;2.30;;;4.60;83.80;;;;;;5053341;28;20446;-74
2021/12/11 08:19:17;;;;;;;3.50;2.30;;;4.70;83.60;;;;;;5053186;28;20508;-74
2021/12/11 08:21:44;;;;;;;6.27;2.13;;;4.70;83.60;;;;;;5053168;28;20494;-73
2021/12/11 08:24:11;;;;;;;3.97;2.70;;;4.80;83.70;;;;;;5053134;28;20866;-74
2021/12/11 08:26:41;;;;;;;4.00;2.80;;;4.90;83.40;;;;;;5053126;28;20492;-74
2021/12/11 08:29:12;;;;;;;4.07;3.07;;;5.00;83.00;;;;;;5053163;28;20580;-74
2021/12/11 08:31:40;;;;;;;3.60;2.70;;;5.00;82.50;;;;;;5053658;28;20493;-73
2021/12/11 08:34:07;;;;;;;4.90;3.37;;;4.90;82.50;;;;;;5053220;28;20454;-73
2021/12/11 08:36:34;;;;;;;3.93;3.20;;;5.00;82.50;;;;;;5053283;28;20855;-73
2021/12/11 08:39:01;;;;;;;4.50;2.90;;;5.00;82.30;;;;;;5053184;28;20509;-74
2021/12/11 08:41:29;;;;;;;3.70;2.60;;;5.00;82.30;;;;;;5053143;28;20501;-74
2021/12/11 08:44:06;;;;;;;4.10;3.07;;;5.10;82.20;;;;;;5055593;28;20825;-74
2021/12/11 08:46:38;;;;;;;3.77;2.40;;;5.10;82.40;;;;;;5057049;28;20464;-73
2021/12/11 08:49:07;;;;;;;3.73;2.77;;;5.10;82.20;;;;;;5057252;28;20488;-73
2021/12/11 08:51:37;;;;;;;4.50;3.13;;;5.00;82.10;;;;;;5057104;28;20904;-73
2021/12/11 08:54:04;;;;;;;3.67;2.70;;;5.10;82.30;;;;;;5057050;28;20480;-73
2021/12/11 08:56:34;;;;;;;4.47;3.13;;;5.10;81.90;;;;;;5056728;28;20822;-74
2021/12/11 08:59:01;;;;;;;4.47;2.57;;;5.10;82.10;;;;;;5057026;28;20446;-74
2021/12/11 09:01:33;;;;;;;3.43;2.30;;;5.20;82.20;;;;;;5057143;28;20493;-74
2021/12/11 09:04:05;;;;;;;3.93;2.77;;;5.30;81.90;;;;;;5057040;28;20488;-73
2021/12/11 09:06:37;;;;;;;3.90;2.50;;;5.10;81.60;;;;;;5056578;28;20422;-73
2021/12/11 09:09:08;;;;;;;4.10;3.10;;;5.10;81.90;;;;;;5056598;28;20978;-74
2021/12/11 09:11:38;;;;;;;3.83;2.90;;;5.10;82.30;;;;;;5056696;28;20531;-73
2021/12/11 09:14:10;;;;;;;3.93;3.03;;;5.20;82.10;;;;;;5056757;28;20495;-73
2021/12/11 09:16:42;;;;;;;4.07;3.07;;;5.20;82.20;;;;;;5056973;28;20476;-74
2021/12/11 09:19:14;;;;;;;4.37;3.43;;;5.00;82.00;;;;;;5056534;28;20963;-71
2021/12/11 09:21:45;;;;;;;3.90;2.70;;;5.10;82.30;;;;;;5056280;28;20470;-72
2021/12/11 09:24:20;;;;;;;4.00;2.90;;;5.20;82.20;;;;;;5056606;28;20481;-72
2021/12/11 09:26:51;;;;;;;3.70;2.83;;;5.40;82.20;;;;;;5056575;28;20488;-72
2021/12/11 09:29:21;;;;;;;3.90;2.73;;;5.30;81.70;;;;;;5056463;28;20435;-74
2021/12/11 09:32:05;;;;;;;4.17;3.20;;;5.40;81.90;;;;;;5056493;28;20840;-74
2021/12/11 09:34:36;;;;;;;4.03;3.40;;;5.50;82.00;;;;;;5056933;28;20435;-74
2021/12/11 09:37:06;;;;;;;3.70;2.57;;;5.60;81.60;;;;;;5057008;28;20431;-73
2021/12/11 09:39:38;;;;;;;3.43;2.33;;;5.40;81.00;;;;;;5056933;28;20442;-74
2021/12/11 09:42:04;;;;;;;3.93;2.63;;;5.40;81.70;;;;;;5056881;28;20550;-74
2021/12/11 09:44:36;;;;;;;3.90;3.10;;;5.50;81.70;;;;;;5056881;28;20438;-73
2021/12/11 09:47:10;;;;;;;4.37;3.10;;;5.60;81.80;;;;;;5056662;28;20836;-74
2021/12/11 09:49:42;;;;;;;4.00;2.80;;;5.70;81.50;;;;;;5056554;28;20902;-74
2021/12/11 09:52:17;;;;;;;3.30;2.23;;;5.70;81.20;;;;;;5056333;28;20543;-74
2021/12/11 09:54:48;;;;;;;3.20;2.50;;;5.80;81.40;;;;;;5055803;28;20513;-73
2021/12/11 09:57:18;;;;;;;3.77;2.97;;;5.90;80.90;;;;;;5056420;28;20446;-73
2021/12/11 09:59:51;;;;;;;3.97;2.67;;;5.80;80.60;;;;;;5056703;28;20496;-74
2021/12/11 10:02:20;;;;;;;4.00;2.40;;;5.90;81.00;;;;;;5056570;28;20486;-73
2021/12/11 10:04:58;;;;;;;3.83;2.77;;;5.90;80.80;;;;;;5056460;28;20455;-74
2021/12/11 10:07:30;;;;;;;4.23;2.67;;;5.90;80.70;;;;;;5056488;28;20509;-73
2021/12/11 10:10:10;;;;;;;3.67;2.67;;;5.90;80.70;;;;;;5055843;28;21099;-73
2021/12/11 10:12:41;;;;;;;3.60;2.33;;;5.90;80.40;;;;;;5056383;28;20489;-74
2021/12/11 10:15:15;;;;;;;4.27;3.07;;;5.80;81.30;;;;;;5073863;22;20558;-75
2021/12/11 10:17:46;;;;;;;3.70;2.80;;;5.80;80.80;;;;;;5035688;28;20439;-75
2021/12/11 10:20:18;;;;;;;4.23;2.53;;;5.80;80.70;;;;;;5035676;28;20844;-75
2021/12/11 10:22:47;;;;;;;3.30;2.40;;;5.90;81.20;;;;;;5035989;28;20458;-75
2021/12/11 10:25:19;;;;;;;4.80;4.00;;;5.90;81.10;;;;;;5037760;28;20467;-75
2021/12/11 10:27:46;;;;;;;3.80;3.00;;;5.90;81.10;;;;;;5037677;28;20813;-75
2021/12/11 10:30:19;;;;;;;3.77;2.53;;;5.90;80.70;;;;;;5036959;28;20523;-69
2021/12/11 10:32:46;;;;;;;3.70;2.40;;;5.80;80.30;;;;;;5036267;28;20521;-69
2021/12/11 10:35:16;;;;;;;3.83;2.67;;;5.70;81.40;;;;;;5036071;28;20521;-68
2021/12/11 10:37:44;;;;;;;3.80;2.47;;;5.70;81.90;;;;;;5035287;28;20459;-69
2021/12/11 10:40:16;;;;;;;3.93;3.30;;;5.80;81.70;;;;;;5035206;28;20451;-70
2021/12/11 10:42:46;;;;;;;3.40;2.57;;;5.80;81.40;;;;;;5035348;28;20478;-68
2021/12/11 10:45:16;;;;;;;4.07;2.70;;;5.90;81.90;;;;;;5035108;28;20521;-69
2021/12/11 10:47:47;;;;;;;4.47;2.70;;;6.00;81.50;;;;;;5034805;28;20902;-69
2021/12/11 10:50:22;;;;;;;3.73;2.43;;;6.10;80.70;;;;;;5035070;28;20431;-69
2021/12/11 10:52:50;;;;;;;3.80;2.87;;;6.10;80.20;;;;;;5034903;28;20522;-70
2021/12/11 10:55:19;;;;;;;4.00;2.90;;;6.00;80.50;;;;;;5034822;28;20475;-71
2021/12/11 10:57:46;;;;;;;3.63;2.50;;;5.80;79.50;;;;;;5034867;28;20478;-72
2021/12/11 11:00:27;;;;;;;3.97;2.70;;;5.80;80.10;;;;;;5034824;28;20456;-73
2021/12/11 11:02:55;;;;;;;3.50;2.57;;;5.80;80.90;;;;;;5034786;28;20478;-72
2021/12/11 11:05:24;;;;;;;4.33;2.70;;;6.00;80.80;;;;;;5034614;28;20495;-72
2021/12/11 11:07:50;;;;;;;4.20;2.97;;;6.00;80.20;;;;;;5033633;28;20443;-71
2021/12/11 11:10:24;;;;;;;3.93;2.13;;;6.00;80.00;;;;;;5034634;28;20456;-71
2021/12/11 11:12:53;;;;;;;3.63;2.50;;;5.90;79.00;;;;;;5034595;28;20522;-70
2021/12/11 11:15:24;;;;;;;3.40;2.07;;;5.80;79.40;;;;;;5034202;28;20479;-71
2021/12/11 11:17:51;;;;;;;3.50;2.20;;;5.90;79.50;;;;;;5034211;28;20841;-70
2021/12/11 11:20:21;;;;;;;3.80;2.57;;;6.00;79.50;;;;;;5034500;28;20497;-71
2021/12/11 11:22:48;;;;;;;3.60;2.30;;;6.00;80.50;;;;;;5034115;28;20849;-71
2021/12/11 11:25:20;;;;;;;3.40;2.33;;;6.00;79.60;;;;;;5034259;28;20590;-72
2021/12/11 11:27:52;;;;;;;3.57;2.67;;;6.10;79.30;;;;;;5034316;28;20485;-71
2021/12/11 11:30:27;;;;;;;3.77;2.70;;;6.20;79.30;;;;;;5034371;28;20435;-70
2021/12/11 11:32:55;;;;;;;4.07;2.97;;;6.10;78.70;;;;;;5033921;28;20859;-70
2021/12/11 11:35:25;;;;;;;6.03;2.77;;;6.10;78.80;;;;;;5034033;28;20467;-71
2021/12/11 11:37:55;;;;;;;4.57;2.80;;;6.20;79.00;;;;;;5034117;28;20455;-70
2021/12/11 11:40:24;;;;;;;3.50;2.30;;;6.20;78.70;;;;;;5034078;28;20444;-70
2021/12/11 11:42:51;;;;;;;4.00;2.63;;;6.30;79.00;;;;;;5034038;28;20439;-70
2021/12/11 11:45:19;;;;;;;3.80;2.50;;;6.20;78.90;;;;;;5034254;28;20464;-71
2021/12/11 11:47:47;;;;;;;3.87;2.30;;;6.00;78.90;;;;;;5033944;28;20502;-71
2021/12/11 11:50:19;;;;;;;4.70;2.63;;;6.10;79.40;;;;;;5033561;28;20795;-69
2021/12/11 11:52:46;;;;;;;4.67;2.80;;;6.30;79.10;;;;;;5033830;28;20525;-70
2021/12/11 11:55:16;;;;;;;3.90;2.63;;;6.20;79.80;;;;;;5033772;28;20541;-72
2021/12/11 11:57:48;;;;;;;3.67;3.00;;;6.20;79.50;;;;;;5033814;28;20451;-71
2021/12/11 12:00:18;;;;;;;3.60;2.50;;;6.20;79.00;;;;;;5033856;28;20519;-72
2021/12/11 12:02:46;;;;;;;3.63;2.40;;;6.30;79.40;;;;;;5033786;28;20497;-71
2021/12/11 12:05:14;;;;;;;4.27;2.83;;;6.30;79.40;;;;;;5033320;28;20978;-71
2021/12/11 12:07:41;;;;;;;3.83;2.40;;;6.40;78.10;;;;;;5033687;28;20900;-72
2021/12/11 12:10:12;;;;;;;4.77;3.43;;;6.30;77.00;;;;;;5033592;28;20451;-72
2021/12/11 12:12:39;;;;;;;3.87;2.93;;;6.30;77.60;;;;;;5033549;28;20467;-72
2021/12/11 12:15:09;;;;;;;3.40;2.17;;;6.30;77.60;;;;;;5033262;28;20827;-71
2021/12/11 12:17:36;;;;;;;3.67;2.23;;;6.30;76.90;;;;;;5033057;28;20856;-71
2021/12/11 12:20:07;;;;;;;3.43;2.40;;;6.30;76.50;;;;;;5033549;28;20443;-71
2021/12/11 12:22:34;;;;;;;3.43;2.40;;;6.20;76.30;;;;;;5033474;28;20431;-71
2021/12/11 12:25:02;;;;;;;3.80;2.73;;;6.30;76.60;;;;;;5033009;28;20881;-73
2021/12/11 12:27:33;;;;;;;3.67;2.53;;;6.40;76.30;;;;;;5033393;28;20506;-72
2021/12/11 12:30:04;;;;;;;3.90;2.57;;;6.50;75.30;;;;;;5033429;28;20434;-71
2021/12/11 12:32:35;;;;;;;3.57;2.30;;;6.60;75.20;;;;;;5033298;28;20478;-72
2021/12/11 12:35:07;;;;;;;3.97;2.57;;;6.70;75.30;;;;;;5033278;28;20470;-71
2021/12/11 12:37:34;;;;;;;3.53;1.90;;;6.70;74.70;;;;;;5033325;28;20435;-70
2021/12/11 12:40:05;;;;;;;4.07;2.50;;;6.70;73.70;;;;;;5033237;28;20489;-71
2021/12/11 12:42:37;;;;;;;3.10;2.00;;;6.80;73.60;;;;;;5032939;28;20961;-71
2021/12/11 12:45:12;;;;;;;3.00;1.47;;;8.00;72.50;;;;;;5033347;28;20586;-72
2021/12/11 12:47:42;;;;;;;3.20;1.60;;;8.80;67.40;;;;;;5033796;28;20427;-72
2021/12/11 12:50:18;;;;;;;3.20;1.70;;;9.00;66.80;;;;;;5033732;28;20431;-72
2021/12/11 12:52:46;;;;;;;2.90;1.73;;;9.00;66.10;;;;;;5033168;28;20463;-72
2021/12/11 12:55:19;;;;;;;3.00;1.70;;;8.90;66.10;;;;;;5033051;28;20467;-72
2021/12/11 12:57:48;;;;;;;3.03;1.80;;;8.70;64.80;;;;;;5033726;28;20481;-72
2021/12/11 13:00:20;;;;;;;2.80;1.60;;;8.40;65.60;;;;;;5033108;28;20442;-72
2021/12/11 13:02:48;;;;;;;2.70;1.43;;;8.30;65.90;;;;;;5033191;28;20432;-72
2021/12/11 13:05:21;;;;;;;3.10;1.77;;;8.00;66.00;;;;;;5033310;28;20540;-72
2021/12/11 13:07:49;;;;;;;3.80;1.70;;;7.90;66.40;;;;;;5033063;28;20439;-71
2021/12/11 13:10:20;;;;;;;2.70;1.50;;;7.70;66.90;;;;;;5033048;28;20442;-73
2021/12/11 13:12:49;;;;;;;2.90;1.53;;;7.60;67.90;;;;;;5033569;28;20467;-72
2021/12/11 13:15:21;;;;;;;2.63;1.23;;;7.50;67.50;;;;;;5032629;28;20490;-73
2021/12/11 13:17:52;;;;;;;2.80;1.80;;;7.40;67.60;;;;;;5032860;28;20420;-73
2021/12/11 13:20:23;;;;;;;2.80;1.30;;;7.30;68.00;;;;;;5032997;28;20440;-73
2021/12/11 13:22:51;;;;;;;2.97;1.30;;;7.10;68.20;;;;;;5033149;28;20447;-73
2021/12/11 13:25:22;;;;;;;3.37;2.00;;;6.80;69.40;;;;;;5033137;28;20482;-73
2021/12/11 13:27:52;;;;;;;3.10;1.97;;;6.60;70.90;;;;;;5033326;28;20474;-73
2021/12/11 13:30:26;;;;;;;3.17;1.70;;;6.50;72.80;;;;;;5035140;28;20466;-72
2021/12/11 13:32:53;;;;;;;3.13;1.87;;;6.50;72.70;;;;;;5036895;28;20478;-73
2021/12/11 13:35:26;;;;;;;2.90;1.97;;;6.60;73.50;;;;;;5037360;28;20482;-73
2021/12/11 13:37:53;;;;;;;3.10;2.00;;;6.60;73.00;;;;;;5037518;28;20489;-72
2021/12/11 13:40:23;;;;;;;3.57;2.23;;;6.50;72.00;;;;;;5037681;28;20454;-71
2021/12/11 13:42:54;;;;;;;3.07;1.77;;;6.30;71.90;;;;;;5038253;28;20456;-73
2021/12/11 13:45:26;;;;;;;3.73;1.90;;;6.30;72.90;;;;;;5036895;28;20466;-72
2021/12/11 13:47:54;;;;;;;3.30;2.00;;;6.30;73.80;;;;;;5036306;28;20435;-72
2021/12/11 13:50:26;;;;;;;3.23;1.67;;;6.40;73.70;;;;;;5036205;28;20501;-71
2021/12/11 13:52:54;;;;;;;3.40;2.23;;;6.60;74.60;;;;;;5035876;28;20905;-72
2021/12/11 13:55:21;;;;;;;3.03;1.80;;;6.60;74.10;;;;;;5036027;28;20470;-72
2021/12/11 13:57:49;;;;;;;3.80;2.50;;;6.50;72.90;;;;;;5035731;28;20939;-72
2021/12/11 14:00:20;;;;;;;3.23;2.10;;;6.40;73.70;;;;;;5035968;28;20525;-71
2021/12/11 14:02:47;;;;;;;2.90;1.80;;;6.30;73.60;;;;;;5035942;28;20440;-70
2021/12/11 14:05:14;;;;;;;3.40;2.40;;;6.30;73.80;;;;;;5035825;28;20467;-70
2021/12/11 14:07:43;;;;;;;3.30;2.20;;;6.10;74.50;;;;;;5035519;28;20443;-70
2021/12/11 14:10:20;;;;;;;3.57;2.40;;;6.20;75.40;;;;;;5035766;28;20448;-70
2021/12/11 14:12:49;;;;;;;3.90;2.30;;;6.20;75.00;;;;;;5035707;28;20520;-70
2021/12/11 14:15:16;;;;;;;4.27;2.77;;;6.00;75.70;;;;;;5035426;28;20482;-70
2021/12/11 14:17:43;;;;;;;3.30;1.90;;;5.90;75.70;;;;;;5035336;28;20849;-69
2021/12/11 14:20:11;;;;;;;3.30;2.23;;;5.60;76.50;;;;;;5035645;28;20447;-70
2021/12/11 14:22:38;;;;;;;3.47;2.40;;;5.40;76.80;;;;;;5035599;28;20439;-70
2021/12/11 14:25:08;;;;;;;3.00;1.77;;;5.40;77.90;;;;;;5035478;28;20463;-70
2021/12/11 14:27:36;;;;;;;4.23;2.60;;;5.40;77.50;;;;;;5035262;28;20447;-70
2021/12/11 14:30:10;;;;;;;3.50;2.37;;;5.40;77.10;;;;;;5035448;28;20450;-70
2021/12/11 14:32:42;;;;;;;3.47;2.40;;;5.30;77.60;;;;;;5035482;28;20834;-70
2021/12/11 14:35:10;;;;;;;3.97;2.80;;;5.40;77.90;;;;;;5035678;28;20497;-71
2021/12/11 14:37:37;;;;;;;4.27;2.80;;;5.40;77.90;;;;;;5035012;28;20863;-71
2021/12/11 14:40:08;;;;;;;3.93;2.43;;;5.30;77.90;;;;;;5036054;28;20451;-72
2021/12/11 14:42:35;;;;;;;3.03;2.03;;;5.20;78.60;;;;;;5035044;28;20493;-71
2021/12/11 14:45:08;;;;;;;3.20;2.03;;;5.10;78.60;;;;;;5035093;28;20541;-73
2021/12/11 14:47:35;;;;;;;3.50;2.20;;;4.90;79.60;;;;;;5035883;28;20477;-72
2021/12/11 14:50:03;;;;;;;4.23;2.90;;;5.10;79.90;;;;;;5037219;28;20459;-72
2021/12/11 14:52:31;;;;;;;4.10;2.30;;;5.20;79.60;;;;;;5035135;28;20448;-71
2021/12/11 14:55:01;;;;;;;3.63;2.80;;;5.40;79.40;;;;;;5035013;28;20952;-72
2021/12/11 14:57:29;;;;;;;3.87;2.63;;;5.20;79.00;;;;;;5036210;28;20466;-72
2021/12/11 14:59:59;;;;;;;3.87;2.90;;;5.30;79.80;;;;;;5035046;28;20459;-72
2021/12/11 15:02:29;;;;;;;4.47;2.90;;;5.30;79.50;;;;;;5034878;28;20532;-73
2021/12/11 15:04:58;;;;;;;4.57;3.20;;;5.50;79.30;;;;;;5034850;28;20484;-73
2021/12/11 15:07:28;;;;;;;4.60;2.23;;;5.50;78.90;;;;;;5034818;28;20501;-72
2021/12/11 15:09:56;;;;;;;3.43;2.07;;;5.40;78.90;;;;;;5034747;28;20534;-72
2021/12/11 15:12:23;;;;;;;4.03;2.80;;;5.50;78.90;;;;;;5034625;28;20505;-72
2021/12/11 15:14:51;;;;;;;4.00;2.87;;;5.50;78.50;;;;;;5034384;28;20897;-72
2021/12/11 15:17:23;;;;;;;4.30;3.23;;;5.50;78.90;;;;;;5034636;28;20517;-71
2021/12/11 15:19:52;;;;;;;4.10;3.10;;;5.30;79.10;;;;;;5034537;28;20494;-72
2021/12/11 15:22:20;;;;;;;4.10;2.70;;;5.30;79.60;;;;;;5034479;28;20474;-72
2021/12/11 15:24:48;;;;;;;3.90;2.97;;;5.30;79.70;;;;;;5034891;28;20529;-71
2021/12/11 15:27:15;;;;;;;4.00;3.00;;;5.40;79.70;;;;;;5034385;28;20451;-71
2021/12/11 15:29:43;;;;;;;3.77;2.60;;;5.40;79.60;;;;;;5034346;28;20459;-72
2021/12/11 15:32:11;;;;;;;4.50;2.83;;;5.50;79.40;;;;;;5034035;28;20451;-71
2021/12/11 15:34:39;;;;;;;4.20;2.90;;;5.40;79.60;;;;;;5034106;28;20479;-72
2021/12/11 15:37:08;;;;;;;3.87;3.27;;;5.40;79.70;;;;;;5034776;28;20447;-72
2021/12/11 15:39:38;;;;;;;3.20;2.30;;;5.30;79.80;;;;;;5034205;28;20447;-71
2021/12/11 15:42:06;;;;;;;4.40;3.13;;;5.30;80.10;;;;;;5034144;28;20513;-72
2021/12/11 15:44:44;;;;;;;3.97;2.87;;;5.20;80.00;;;;;;5034033;28;20493;-72
2021/12/11 15:47:15;;;;;;;4.30;3.73;;;5.10;80.60;;;;;;5034028;28;20435;-71
2021/12/11 15:49:41;;;;;;;3.93;2.90;;;5.00;80.60;;;;;;5033962;28;20452;-71
2021/12/11 15:52:10;;;;;;;6.13;4.10;;;4.90;80.90;;;;;;5033779;28;20542;-71
2021/12/11 15:54:38;;;;;;;5.50;3.87;;;4.90;81.30;;;;;;5033416;28;20483;-71
2021/12/11 15:57:06;;;;;;;5.10;3.90;;;5.00;81.10;;;;;;5034050;28;20451;-69
2021/12/11 15:59:33;;;;;;;6.10;4.00;;;4.80;81.30;;;;;;5033886;28;20509;-71
2021/12/11 16:02:03;;;;;;;8.73;4.20;;;4.90;81.40;;;;;;5033444;28;20815;-71
2021/12/11 16:04:33;;;;;;;4.70;3.23;;;4.90;81.30;;;;;;5033740;28;20436;-71
2021/12/11 16:07:01;;;;;;;5.07;3.60;;;5.00;81.40;;;;;;5033666;28;20566;-71
2021/12/11 16:09:29;;;;;;;5.10;3.77;;;5.00;81.10;;;;;;5033674;28;20448;-72
2021/12/11 16:11:58;;;;;;;4.47;3.20;;;5.20;80.90;;;;;;5033667;28;20479;-71
2021/12/11 16:14:27;;;;;;;4.27;3.13;;;5.00;80.40;;;;;;5033198;28;20487;-71
2021/12/11 16:16:57;;;;;;;3.27;2.30;;;4.90;81.10;;;;;;5073781;23;20498;-71
2021/12/11 16:19:29;;;;;;;4.50;3.17;;;5.00;80.90;;;;;;5053370;28;20474;-71
2021/12/11 16:22:01;;;;;;;4.20;3.17;;;5.10;80.60;;;;;;5053225;28;20906;-71
2021/12/11 16:24:28;;;;;;;5.77;3.43;;;5.00;81.00;;;;;;5053625;28;20476;-71
2021/12/11 16:26:55;;;;;;;4.73;3.23;;;5.10;80.40;;;;;;5053484;28;20471;-72
2021/12/11 16:29:22;;;;;;;4.80;4.07;;;5.10;80.70;;;;;;5053069;28;20794;-71
2021/12/11 16:31:49;;;;;;;5.70;4.07;;;5.00;80.80;;;;;;5053556;28;20461;-72
2021/12/11 16:34:16;;;;;;;4.73;3.40;;;5.10;80.20;;;;;;5053337;28;20474;-71
2021/12/11 16:36:47;;;;;;;5.00;3.77;;;5.00;80.70;;;;;;5053292;28;20485;-72
2021/12/11 16:39:18;;;;;;;5.27;4.00;;;5.30;80.50;;;;;;5053350;28;20442;-72
2021/12/11 16:41:48;;;;;;;5.73;4.23;;;5.40;80.10;;;;;;5054201;28;20438;-71
2021/12/11 16:44:18;;;;;;;5.10;4.00;;;5.50;79.90;;;;;;5054212;28;20447;-71
2021/12/11 16:46:52;;;;;;;4.60;3.17;;;5.60;79.20;;;;;;5053832;28;20550;-72
2021/12/11 16:49:20;;;;;;;5.00;3.83;;;5.70;78.80;;;;;;5053150;28;20953;-72
2021/12/11 16:51:50;;;;;;;4.40;3.47;;;5.60;78.10;;;;;;5053240;28;20880;-71
2021/12/11 16:54:19;;;;;;;4.33;3.40;;;5.50;78.80;;;;;;5053083;28;20473;-71
2021/12/11 16:56:46;;;;;;;5.30;4.37;;;5.50;79.00;;;;;;5053024;28;20491;-71
2021/12/11 16:59:15;;;;;;;5.70;4.70;;;5.50;79.00;;;;;;5053234;28;20512;-71
2021/12/11 17:01:45;;;;;;;5.43;4.60;;;5.50;79.10;;;;;;5053175;28;20455;-71
2021/12/11 17:04:12;;;;;;;5.87;5.30;;;5.60;79.10;;;;;;5054319;28;20488;-71
2021/12/11 17:06:42;;;;;;;6.30;5.70;;;5.70;78.90;;;;;;5056646;28;20876;-71
2021/12/11 17:09:11;;;;;;;6.37;4.90;;;5.60;78.80;;;;;;5062801;28;20469;-71
2021/12/11 17:11:39;;;;;;;5.47;4.90;;;5.30;78.90;;;;;;5064921;28;20450;-71
2021/12/11 17:14:07;;;;;;;5.23;4.33;;;5.00;79.50;;;;;;5064143;28;20474;-71